Overview Statistics Trail Chart Weather Telemetry Raw packets
 

This is the latest recevied weather packets stored in our database for station/object N7ZAP. If no packets are shown the sender has not sent any weather packets the latest 10 day(s).

<< 21 22 23 24 25 26 27 >>
Time Temp. Humidity Pressure Rain* Wind** Luminosity Snow
1788548890 28.89° C 44% 1020.6 hPa 0 mm - - -
1788548586 28.33° C 46% 1021 hPa 0 mm - - -
1788548283 27.78° C 48% 1021 hPa 0 mm - - -
1788547977 26.67° C 51% 1020.7 hPa 0 mm - - -
1788547676 26.11° C 54% 1020.9 hPa 0 mm - - -
1788547372 26.11° C 54% 1021.2 hPa 0 mm - - -
1788547067 25.56° C 55% 1021.1 hPa 0 mm - - -
1788546762 26.11° C 53% 1021.1 hPa 0 mm - - -
1788546457 25.56° C 55% 1021.2 hPa 0 mm - - -
1788546164 25° C 57% 1021.4 hPa 0 mm - - -
1788545848 25° C 59% 1021.7 hPa 0 mm - - -
1788545547 24.44° C 62% 1021.7 hPa 0 mm - - -
1788545243 23.89° C 61% 1022.3 hPa 0 mm - - -
1788544938 23.89° C 65% 1021.8 hPa 0 mm - - -
1788544637 23.89° C 65% 1021.9 hPa 0 mm - - -
1788544336 23.89° C 66% 1021.7 hPa 0 mm - - -
1788544031 23.89° C 66% 1021.8 hPa 0 mm - - -
1788543727 23.89° C 66% 1021.9 hPa 0 mm - - -
1788543422 23.89° C 64% 1021.8 hPa 0 mm - - -
1788543117 23.89° C 64% 1021.8 hPa 0 mm - - -
1788542814 23.89° C 63% 1021.8 hPa 0 mm - - -
1788542513 23.89° C 63% 1022 hPa 0 mm - - -
1788542209 23.89° C 62% 1022.3 hPa 0 mm - - -
1788541903 23.89° C 63% 1022.1 hPa 0 mm - - -
1788541600 23.89° C 63% 1022.3 hPa 0 mm - - -

* Rain latest hour (hover to see other rain measurements)
** Current wind speed in m/s (hover to see current wind gust speed)